createdAt,value
2022-10-25T00:02:19.837Z,67.45
2022-10-25T00:04:47.140Z,67.57
2022-10-25T00:07:14.095Z,67.53
2022-10-25T00:09:41.246Z,67.56
2022-10-25T00:12:09.108Z,67.54
2022-10-25T00:14:36.104Z,67.60
2022-10-25T00:17:03.097Z,67.54
2022-10-25T00:19:29.976Z,67.68
2022-10-25T00:21:56.813Z,67.65
2022-10-25T00:24:23.694Z,67.40
2022-10-25T00:26:50.565Z,67.75
2022-10-25T00:29:18.218Z,67.65
2022-10-25T00:31:45.053Z,67.78
2022-10-25T00:34:12.301Z,67.74
2022-10-25T00:36:39.221Z,67.75
2022-10-25T00:39:06.093Z,67.81
2022-10-25T00:41:34.491Z,67.73
2022-10-25T00:44:38.741Z,67.91
2022-10-25T00:47:20.896Z,67.88
2022-10-25T00:49:52.811Z,67.81
2022-10-25T00:52:20.084Z,67.93
2022-10-25T00:54:51.393Z,67.98
2022-10-25T00:57:23.839Z,67.98
2022-10-25T00:59:51.218Z,67.87
2022-10-25T01:02:20.309Z,67.84
2022-10-25T01:04:47.552Z,67.97
2022-10-25T01:07:14.392Z,67.98
2022-10-25T01:09:42.042Z,67.92
2022-10-25T01:12:09.003Z,68.01
2022-10-25T01:14:39.388Z,67.98
2022-10-25T01:17:30.832Z,67.99
2022-10-25T01:20:22.968Z,68.04
2022-10-25T01:23:08.075Z,68.02
2022-10-25T01:25:56.846Z,68.06
2022-10-25T01:28:54.375Z,68.08
2022-10-25T01:31:21.178Z,68.14
2022-10-25T01:34:03.609Z,68.03
2022-10-25T01:36:45.322Z,68.16
2022-10-25T01:39:18.046Z,68.24
2022-10-25T01:42:17.617Z,68.10
2022-10-25T01:44:47.271Z,68.19
2022-10-25T01:47:18.830Z,68.26
2022-10-25T01:49:50.816Z,68.12
2022-10-25T01:52:22.593Z,68.16
2022-10-25T01:54:50.395Z,68.31
2022-10-25T01:57:38.894Z,68.06
2022-10-25T02:00:07.384Z,68.14
2022-10-25T02:02:43.569Z,68.10
2022-10-25T02:05:21.492Z,68.22
2022-10-25T02:07:57.276Z,68.24
2022-10-25T02:10:34.471Z,68.27
2022-10-25T02:13:27.466Z,68.13
2022-10-25T02:15:57.506Z,68.17
2022-10-25T02:18:28.677Z,68.22
2022-10-25T02:20:56.637Z,68.15
2022-10-25T02:23:25.440Z,68.25
2022-10-25T02:25:53.806Z,68.38
2022-10-25T02:28:24.578Z,68.25
2022-10-25T02:30:53.431Z,68.14
2022-10-25T02:33:20.326Z,68.19
2022-10-25T02:36:05.314Z,68.25
2022-10-25T02:38:33.046Z,68.29
2022-10-25T02:41:02.299Z,68.25
2022-10-25T02:46:18.972Z,68.45
2022-10-25T02:48:46.735Z,68.43
2022-10-25T02:51:14.486Z,68.25
2022-10-25T02:53:41.752Z,68.33
2022-10-25T02:56:12.217Z,68.51
2022-10-25T02:58:41.012Z,68.56
2022-10-25T03:01:08.829Z,68.35
2022-10-25T03:03:36.051Z,68.38
2022-10-25T03:06:03.375Z,68.46
2022-10-25T03:08:33.286Z,68.31
2022-10-25T03:11:00.434Z,68.47
2022-10-25T03:13:27.433Z,68.41
2022-10-25T03:15:54.244Z,68.35
2022-10-25T03:18:22.553Z,68.48
2022-10-25T03:20:49.892Z,68.58
2022-10-25T03:23:16.922Z,68.49
2022-10-25T03:25:43.812Z,68.54
2022-10-25T03:28:10.609Z,68.32
2022-10-25T03:30:37.402Z,68.61
2022-10-25T03:33:04.206Z,68.61
2022-10-25T03:35:31.062Z,68.45
2022-10-25T03:37:57.857Z,68.56
2022-10-25T03:40:24.738Z,68.39
2022-10-25T03:42:51.587Z,68.43
2022-10-25T03:45:18.755Z,68.30
2022-10-25T03:47:46.154Z,68.59
2022-10-25T03:50:13.775Z,68.43
2022-10-25T03:52:41.191Z,68.52
2022-10-25T03:55:08.802Z,68.28
2022-10-25T03:57:36.284Z,68.38
2022-10-25T04:00:04.172Z,68.46
2022-10-25T04:02:30.979Z,68.38
2022-10-25T04:04:57.781Z,68.15
2022-10-25T04:07:24.650Z,68.54
2022-10-25T04:09:51.463Z,68.55
2022-10-25T04:12:18.279Z,68.46
2022-10-25T04:14:45.086Z,68.31
2022-10-25T04:17:11.857Z,68.56
2022-10-25T04:19:38.677Z,68.43
2022-10-25T04:22:05.531Z,68.50
2022-10-25T04:24:32.344Z,68.42
2022-10-25T04:26:59.173Z,68.59
2022-10-25T04:29:26.014Z,68.42
2022-10-25T04:31:52.825Z,68.53
2022-10-25T04:34:19.619Z,68.52
2022-10-25T04:36:46.382Z,68.39
2022-10-25T04:39:13.205Z,68.52
2022-10-25T04:41:40.022Z,68.40
2022-10-25T04:44:06.888Z,68.47
2022-10-25T04:46:33.724Z,68.41
2022-10-25T04:49:00.540Z,68.50
2022-10-25T04:51:27.347Z,68.45
2022-10-25T04:53:55.328Z,68.54
2022-10-25T04:56:22.755Z,68.60
2022-10-25T04:58:49.532Z,68.52
2022-10-25T05:01:18.495Z,68.57
2022-10-25T05:03:45.735Z,68.72
2022-10-25T05:06:15.344Z,68.61
2022-10-25T05:08:44.189Z,68.42
2022-10-25T05:11:13.443Z,68.39
2022-10-25T05:13:42.187Z,68.48
2022-10-25T05:16:14.708Z,68.52
2022-10-25T05:18:43.095Z,68.63
2022-10-25T05:21:10.578Z,68.64
2022-10-25T05:23:37.452Z,68.78
2022-10-25T05:26:07.231Z,68.68
2022-10-25T05:28:36.163Z,68.97
2022-10-25T05:31:13.768Z,68.99
2022-10-25T05:33:40.819Z,69.19
2022-10-25T05:36:08.067Z,69.27
2022-10-25T05:38:37.649Z,69.30
2022-10-25T05:41:05.177Z,69.44
2022-10-25T05:43:32.092Z,69.41
2022-10-25T05:46:05.041Z,69.32
2022-10-25T05:48:33.317Z,69.54
2022-10-25T05:51:33.154Z,69.47
2022-10-25T05:54:06.297Z,69.39
2022-10-25T05:56:34.197Z,68.62
2022-10-25T05:59:12.355Z,68.45
2022-10-25T06:01:42.049Z,68.68
2022-10-25T06:04:09.551Z,68.81
2022-10-25T06:06:37.840Z,68.92
2022-10-25T06:09:05.595Z,68.84
2022-10-25T06:11:32.931Z,68.88
2022-10-25T06:13:59.814Z,68.86
2022-10-25T06:16:26.686Z,68.88
2022-10-25T06:18:54.275Z,68.74
2022-10-25T06:21:23.698Z,68.64
2022-10-25T06:23:51.414Z,68.75
2022-10-25T06:26:24.188Z,68.83
2022-10-25T06:28:56.715Z,68.78
2022-10-25T06:31:24.208Z,68.05
2022-10-25T06:33:51.210Z,67.44
2022-10-25T06:36:23.777Z,68.37
2022-10-25T06:38:51.279Z,68.67
2022-10-25T06:41:27.982Z,68.63
2022-10-25T06:43:55.505Z,68.77
2022-10-25T06:46:30.381Z,68.65
2022-10-25T06:48:58.277Z,68.89
2022-10-25T06:51:26.860Z,68.69
2022-10-25T06:54:09.776Z,68.64
2022-10-25T06:56:36.993Z,68.98
2022-10-25T06:59:07.544Z,68.75
2022-10-25T07:01:34.944Z,68.66
2022-10-25T07:04:03.295Z,68.95
2022-10-25T07:06:38.273Z,68.89
2022-10-25T07:09:06.833Z,68.98
2022-10-25T07:11:34.100Z,69.11
2022-10-25T07:14:01.842Z,69.13
2022-10-25T07:16:29.686Z,69.37
2022-10-25T07:19:04.397Z,69.41
2022-10-25T07:21:33.260Z,69.48
2022-10-25T07:24:00.259Z,69.41
2022-10-25T07:26:32.950Z,69.55
2022-10-25T07:29:01.144Z,69.46
2022-10-25T07:31:41.207Z,69.54
2022-10-25T07:34:08.242Z,69.42
2022-10-25T07:36:35.285Z,69.43
2022-10-25T07:39:02.272Z,69.25
2022-10-25T07:41:29.200Z,69.15
2022-10-25T07:43:56.255Z,69.56
2022-10-25T07:46:23.836Z,69.25
2022-10-25T07:48:52.725Z,69.25
2022-10-25T07:51:19.911Z,69.30
2022-10-25T07:53:46.976Z,69.21
2022-10-25T07:56:18.847Z,69.18
2022-10-25T07:58:49.329Z,69.24
2022-10-25T08:01:24.287Z,69.30
2022-10-25T08:03:52.884Z,69.19
2022-10-25T08:06:20.666Z,69.02
2022-10-25T08:08:47.646Z,69.13
2022-10-25T08:11:14.553Z,69.14
2022-10-25T08:13:41.595Z,69.20
2022-10-25T08:16:08.950Z,69.27
2022-10-25T08:18:36.099Z,69.11
2022-10-25T08:21:03.987Z,69.06
2022-10-25T08:23:32.552Z,69.09
2022-10-25T08:26:00.559Z,69.15
2022-10-25T08:28:28.319Z,68.94
2022-10-25T08:30:55.972Z,68.91
2022-10-25T08:33:24.243Z,68.82
2022-10-25T08:35:51.418Z,69.12
2022-10-25T08:38:18.593Z,68.84
2022-10-25T08:41:03.369Z,68.88
2022-10-25T08:43:42.316Z,68.91
2022-10-25T08:46:24.109Z,68.76
2022-10-25T08:49:06.575Z,68.95
2022-10-25T08:51:38.283Z,68.87
2022-10-25T08:54:23.129Z,69.02
2022-10-25T08:57:14.575Z,68.71
2022-10-25T08:59:47.075Z,68.72
2022-10-25T09:02:23.422Z,68.93
2022-10-25T09:04:50.633Z,68.91
2022-10-25T09:07:42.080Z,68.98
2022-10-25T09:10:25.694Z,69.08
2022-10-25T09:13:06.967Z,69.12
2022-10-25T09:16:03.681Z,69.11
2022-10-25T09:18:44.791Z,69.29
2022-10-25T09:21:58.035Z,69.64
2022-10-25T09:24:43.896Z,69.77
2022-10-25T09:27:22.981Z,69.97
2022-10-25T09:30:11.047Z,70.21
2022-10-25T09:32:55.564Z,69.87
2022-10-25T09:35:31.477Z,69.93
2022-10-25T09:38:10.982Z,69.81
2022-10-25T09:41:02.659Z,69.75
2022-10-25T09:44:01.827Z,69.94
2022-10-25T09:46:43.539Z,70.16
2022-10-25T09:49:37.961Z,69.93
2022-10-25T09:52:31.263Z,70.10
2022-10-25T09:55:27.006Z,69.88
2022-10-25T09:57:55.084Z,69.96
2022-10-25T10:00:22.115Z,69.61
2022-10-25T10:02:49.441Z,69.58
2022-10-25T10:05:18.846Z,69.73
2022-10-25T10:07:47.644Z,69.92
2022-10-25T10:10:21.692Z,69.87
2022-10-25T10:15:53.489Z,67.79
2022-10-25T10:18:22.592Z,67.15
2022-10-25T10:21:11.032Z,67.37
2022-10-25T10:23:43.835Z,68.09
2022-10-25T10:26:18.624Z,68.42
2022-10-25T10:28:48.857Z,68.70
2022-10-25T10:31:18.348Z,68.73
2022-10-25T10:33:52.486Z,68.80
2022-10-25T10:36:23.992Z,68.79
2022-10-25T10:38:51.326Z,69.12
2022-10-25T10:41:28.036Z,69.21
2022-10-25T10:44:12.299Z,69.19
2022-10-25T10:46:45.895Z,69.39
2022-10-25T10:49:14.626Z,69.27
2022-10-25T10:51:45.312Z,69.25
2022-10-25T10:54:46.561Z,69.31
2022-10-25T10:57:34.344Z,69.29
2022-10-25T11:00:02.765Z,69.47
2022-10-25T11:02:42.129Z,69.56
2022-10-25T11:05:20.372Z,69.55
2022-10-25T11:07:57.553Z,69.51
2022-10-25T11:10:30.304Z,69.57
2022-10-25T11:13:09.154Z,69.72
2022-10-25T11:16:14.317Z,69.66
2022-10-25T11:19:03.916Z,69.72
2022-10-25T11:21:33.499Z,69.83
2022-10-25T11:24:06.552Z,69.90
2022-10-25T11:27:09.520Z,69.74
2022-10-25T11:29:39.122Z,69.82
2022-10-25T11:32:28.206Z,69.66
2022-10-25T11:35:19.411Z,69.93
2022-10-25T11:38:03.058Z,69.87
2022-10-25T11:40:33.208Z,69.82
2022-10-25T11:43:19.400Z,69.81
2022-10-25T11:45:48.797Z,69.99
2022-10-25T11:48:27.983Z,69.92
2022-10-25T11:51:14.402Z,69.99
2022-10-25T11:54:17.258Z,69.99
2022-10-25T11:56:52.908Z,69.99
2022-10-25T11:59:37.001Z,70.04
2022-10-25T12:02:13.158Z,70.02
2022-10-25T12:04:58.229Z,70.15
2022-10-25T12:07:37.856Z,70.09
2022-10-25T12:10:07.832Z,70.07
2022-10-25T12:12:43.719Z,70.22
2022-10-25T12:15:37.764Z,70.29
2022-10-25T12:18:07.196Z,70.13
2022-10-25T12:20:37.143Z,70.11
2022-10-25T12:23:07.611Z,69.90
2022-10-25T12:25:47.667Z,69.34
2022-10-25T12:28:42.913Z,69.64
2022-10-25T12:31:32.049Z,69.05
2022-10-25T12:34:04.205Z,69.12
2022-10-25T12:36:44.472Z,69.39
2022-10-25T12:39:44.431Z,69.89
2022-10-25T12:42:19.366Z,69.77
2022-10-25T12:45:10.494Z,69.79
2022-10-25T12:48:00.767Z,69.98
2022-10-25T12:50:42.958Z,69.85
2022-10-25T12:53:28.693Z,69.83
2022-10-25T12:56:02.945Z,69.05
2022-10-25T12:58:49.905Z,68.39
2022-10-25T13:01:26.039Z,68.13
2022-10-25T13:04:18.619Z,68.17
2022-10-25T13:06:51.493Z,69.01
2022-10-25T13:09:26.075Z,69.31
2022-10-25T13:12:04.912Z,69.34
2022-10-25T13:14:43.897Z,69.49
2022-10-25T13:17:17.199Z,69.52
2022-10-25T13:19:55.050Z,69.54
2022-10-25T13:22:29.378Z,69.73
2022-10-25T13:24:59.489Z,69.60
2022-10-25T13:27:29.434Z,69.67
2022-10-25T13:30:09.013Z,69.68
2022-10-25T13:32:41.621Z,69.86
2022-10-25T13:35:20.635Z,69.63
2022-10-25T13:37:55.163Z,69.52
2022-10-25T13:40:30.919Z,69.55
2022-10-25T13:43:07.662Z,69.60
2022-10-25T13:45:43.798Z,69.47
2022-10-25T13:48:13.759Z,68.69
2022-10-25T13:51:07.204Z,67.78
2022-10-25T13:53:41.699Z,68.01
2022-10-25T13:56:17.622Z,68.67
2022-10-25T13:58:56.370Z,68.89
2022-10-25T14:01:26.645Z,69.00
2022-10-25T14:04:03.122Z,68.94
2022-10-25T14:06:41.459Z,68.98
2022-10-25T14:09:25.822Z,69.19
2022-10-25T14:12:01.913Z,68.87
2022-10-25T14:14:30.204Z,69.01
2022-10-25T14:17:15.842Z,69.08
2022-10-25T14:19:56.409Z,68.83
2022-10-25T14:22:51.964Z,68.83
2022-10-25T14:25:18.977Z,68.84
2022-10-25T14:27:45.990Z,68.92
2022-10-25T14:30:28.273Z,68.84
2022-10-25T14:33:04.533Z,68.64
2022-10-25T14:35:35.586Z,68.79
2022-10-25T14:38:14.780Z,68.72
2022-10-25T14:40:42.050Z,68.57
2022-10-25T14:43:22.751Z,68.51
2022-10-25T14:46:03.443Z,68.41
2022-10-25T14:48:31.028Z,68.40
2022-10-25T14:51:01.079Z,68.01
2022-10-25T14:53:28.937Z,67.55
2022-10-25T14:56:00.952Z,67.95
2022-10-25T14:58:40.527Z,68.25
2022-10-25T15:01:09.831Z,68.25
2022-10-25T15:03:43.643Z,68.25
2022-10-25T15:06:13.464Z,68.04
2022-10-25T15:08:41.563Z,68.11
2022-10-25T15:11:20.078Z,67.96
2022-10-25T15:13:50.174Z,67.90
2022-10-25T15:16:37.767Z,67.79
2022-10-25T15:19:14.250Z,67.74
2022-10-25T15:21:46.533Z,67.75
2022-10-25T15:24:15.359Z,67.60
2022-10-25T15:26:54.156Z,67.39
2022-10-25T15:29:43.054Z,67.27
2022-10-25T15:32:27.900Z,67.12
2022-10-25T15:34:58.777Z,67.02
2022-10-25T15:37:28.173Z,67.02
2022-10-25T15:39:56.812Z,66.68
2022-10-25T15:42:26.025Z,66.76
2022-10-25T15:44:53.352Z,66.37
2022-10-25T15:47:29.392Z,66.22
2022-10-25T15:49:56.733Z,66.37
2022-10-25T15:52:23.840Z,66.20
2022-10-25T15:54:51.168Z,66.38
2022-10-25T15:57:19.619Z,65.76
2022-10-25T15:59:46.900Z,65.72
2022-10-25T16:02:32.724Z,65.76
2022-10-25T16:04:59.795Z,65.79
2022-10-25T16:07:26.850Z,65.85
2022-10-25T16:09:53.721Z,65.86
2022-10-25T16:12:28.967Z,65.83
2022-10-25T16:14:55.977Z,65.76
2022-10-25T16:17:22.885Z,66.03
2022-10-25T16:19:49.892Z,66.20
2022-10-25T16:22:16.908Z,66.42
2022-10-25T16:24:43.931Z,66.47
2022-10-25T16:27:14.074Z,66.68
2022-10-25T16:29:41.404Z,66.57
2022-10-25T16:32:08.354Z,66.57
2022-10-25T16:34:35.296Z,66.50
2022-10-25T16:37:02.173Z,66.27
2022-10-25T16:39:29.426Z,66.50
2022-10-25T16:41:58.541Z,66.39
2022-10-25T16:44:25.494Z,66.42
2022-10-25T16:46:52.324Z,66.47
2022-10-25T16:49:19.231Z,66.38
2022-10-25T16:51:46.101Z,66.55
2022-10-25T16:54:13.965Z,66.12
2022-10-25T16:56:42.133Z,66.35
2022-10-25T16:59:09.119Z,66.17
2022-10-25T17:01:39.968Z,66.12
2022-10-25T17:04:11.720Z,66.14
2022-10-25T17:06:41.823Z,66.04
2022-10-25T17:09:09.940Z,66.01
2022-10-25T17:11:36.901Z,65.79
2022-10-25T17:14:04.145Z,65.67
2022-10-25T17:16:31.040Z,65.69
2022-10-25T17:18:58.788Z,65.51
2022-10-25T17:21:25.841Z,65.25
2022-10-25T17:23:52.879Z,65.37
2022-10-25T17:26:19.804Z,65.26
2022-10-25T17:28:47.029Z,65.28
2022-10-25T17:31:15.331Z,64.91
2022-10-25T17:33:44.380Z,64.96
2022-10-25T17:36:14.617Z,64.93
2022-10-25T17:38:42.459Z,64.72
2022-10-25T17:41:10.857Z,64.55
2022-10-25T17:43:39.246Z,64.51
2022-10-25T17:46:19.505Z,64.64
2022-10-25T17:48:47.582Z,64.60
2022-10-25T17:51:16.059Z,64.48
2022-10-25T17:53:44.162Z,64.31
2022-10-25T17:56:18.888Z,64.28
2022-10-25T17:58:47.646Z,64.21
2022-10-25T18:01:26.599Z,64.32
2022-10-25T18:03:56.136Z,64.18
2022-10-25T18:06:25.120Z,65.17
2022-10-25T18:08:59.317Z,65.00
2022-10-25T18:11:28.738Z,65.14
2022-10-25T18:13:58.305Z,64.96
2022-10-25T18:16:27.886Z,65.15
2022-10-25T18:18:59.756Z,64.97
2022-10-25T18:21:29.264Z,64.91
2022-10-25T18:23:57.985Z,65.15
2022-10-25T18:26:25.761Z,64.85
2022-10-25T18:28:53.692Z,65.04
2022-10-25T18:31:23.642Z,64.77
2022-10-25T18:33:50.764Z,65.11
2022-10-25T18:36:19.929Z,64.76
2022-10-25T18:38:51.583Z,64.92
2022-10-25T18:41:24.405Z,65.21
2022-10-25T18:43:53.230Z,64.90
2022-10-25T18:46:20.379Z,65.14
2022-10-25T18:48:55.226Z,64.97
2022-10-25T18:51:23.468Z,65.02
2022-10-25T18:53:54.908Z,64.95
2022-10-25T18:56:22.581Z,64.82
2022-10-25T18:58:50.202Z,65.02
2022-10-25T19:01:23.516Z,65.44
2022-10-25T19:03:51.410Z,65.23
2022-10-25T19:06:19.384Z,65.34
2022-10-25T19:08:47.049Z,65.45
2022-10-25T19:11:16.745Z,65.35
2022-10-25T19:13:47.512Z,65.11
2022-10-25T19:16:20.994Z,65.35
2022-10-25T19:18:48.592Z,65.35
2022-10-25T19:21:19.026Z,65.36
2022-10-25T19:23:47.500Z,65.27
2022-10-25T19:26:19.672Z,64.72
2022-10-25T19:28:47.815Z,64.83
2022-10-25T19:31:17.704Z,64.37
2022-10-25T19:33:49.132Z,64.45
2022-10-25T19:36:17.861Z,64.21
2022-10-25T19:38:49.182Z,64.27
2022-10-25T19:41:23.122Z,64.17
2022-10-25T19:43:53.765Z,64.05
2022-10-25T19:46:21.922Z,64.13
2022-10-25T19:48:49.278Z,64.03
2022-10-25T19:51:19.493Z,63.90
2022-10-25T19:53:47.036Z,64.02
2022-10-25T19:56:19.099Z,63.96
2022-10-25T19:58:46.700Z,63.71
2022-10-25T20:01:24.192Z,63.61
2022-10-25T20:03:53.401Z,63.52
2022-10-25T20:06:24.849Z,63.43
2022-10-25T20:08:53.832Z,63.64
2022-10-25T20:11:23.483Z,63.48
2022-10-25T20:13:55.064Z,63.50
2022-10-25T20:16:23.315Z,63.56
2022-10-25T20:18:55.249Z,63.38
2022-10-25T20:21:25.339Z,63.39
2022-10-25T20:24:00.933Z,63.58
2022-10-25T20:26:33.446Z,63.74
2022-10-25T20:29:06.705Z,63.56
2022-10-25T20:31:35.180Z,63.75
2022-10-25T20:34:05.663Z,64.12
2022-10-25T20:36:33.513Z,63.72
2022-10-25T20:39:01.334Z,63.13
2022-10-25T20:41:30.452Z,63.44
2022-10-25T20:44:01.144Z,63.24
2022-10-25T20:46:30.669Z,63.59
2022-10-25T20:48:59.405Z,63.48
2022-10-25T20:51:27.274Z,63.83
2022-10-25T20:53:54.675Z,63.92
2022-10-25T20:56:22.847Z,64.05
2022-10-25T20:58:51.299Z,64.09
2022-10-25T21:01:19.847Z,64.21
2022-10-25T21:03:47.994Z,64.11
2022-10-25T21:06:15.427Z,64.31
2022-10-25T21:08:45.692Z,64.23
2022-10-25T21:11:13.869Z,64.35
2022-10-25T21:13:41.250Z,64.49
2022-10-25T21:16:14.686Z,64.43
2022-10-25T21:18:43.476Z,64.54
2022-10-25T21:21:18.461Z,64.47
2022-10-25T21:23:47.617Z,64.55
2022-10-25T21:26:15.083Z,64.78
2022-10-25T21:28:42.810Z,64.91
2022-10-25T21:31:15.730Z,64.84
2022-10-25T21:33:52.502Z,64.72
2022-10-25T21:36:21.991Z,64.99
2022-10-25T21:38:49.088Z,65.02
2022-10-25T21:41:23.837Z,64.93
2022-10-25T21:43:51.490Z,65.22
2022-10-25T21:46:21.403Z,65.13
2022-10-25T21:48:51.079Z,65.29
2022-10-25T21:51:19.666Z,65.23
2022-10-25T21:53:47.545Z,65.37
2022-10-25T21:56:20.548Z,65.42
2022-10-25T21:58:49.339Z,65.45
2022-10-25T22:01:23.364Z,65.60
2022-10-25T22:03:50.772Z,65.64
2022-10-25T22:06:21.154Z,65.70
2022-10-25T22:08:49.229Z,65.72
2022-10-25T22:11:25.332Z,65.64
2022-10-25T22:14:01.612Z,65.78
2022-10-25T22:16:30.281Z,65.83
2022-10-25T22:19:05.318Z,65.88
2022-10-25T22:21:38.363Z,65.77
2022-10-25T22:24:06.788Z,65.94
2022-10-25T22:26:34.019Z,65.97
2022-10-25T22:29:01.007Z,66.18
2022-10-25T22:31:29.681Z,66.06
2022-10-25T22:33:58.796Z,66.37
2022-10-25T22:36:28.285Z,66.08
2022-10-25T22:38:56.080Z,66.33
2022-10-25T22:41:25.075Z,66.23
2022-10-25T22:43:51.976Z,66.43
2022-10-25T22:46:24.418Z,66.36
2022-10-25T22:48:53.399Z,66.53
2022-10-25T22:51:21.159Z,66.44
2022-10-25T22:53:48.246Z,66.58
2022-10-25T22:56:19.960Z,66.66
2022-10-25T22:58:55.776Z,66.54
2022-10-25T23:01:27.731Z,66.53
2022-10-25T23:03:56.746Z,66.65
2022-10-25T23:06:26.379Z,66.65
2022-10-25T23:08:54.904Z,66.83
2022-10-25T23:11:24.712Z,66.60
2022-10-25T23:13:52.264Z,66.86
2022-10-25T23:16:20.011Z,66.79
2022-10-25T23:18:47.270Z,66.85
2022-10-25T23:21:20.294Z,66.81
2022-10-25T23:23:47.384Z,66.92
2022-10-25T23:26:36.672Z,66.92
2022-10-25T23:29:04.510Z,67.08
2022-10-25T23:31:32.078Z,67.02
2022-10-25T23:34:00.757Z,67.14
2022-10-25T23:36:29.855Z,67.18
2022-10-25T23:38:58.273Z,67.06
2022-10-25T23:41:25.105Z,67.14
2022-10-25T23:43:52.105Z,67.12
2022-10-25T23:46:19.023Z,67.02
2022-10-25T23:48:45.963Z,67.08
2022-10-25T23:51:15.511Z,67.20
2022-10-25T23:53:43.113Z,67.40
2022-10-25T23:56:11.847Z,67.28
2022-10-25T23:58:39.541Z,67.18
